createdAt,value
2022-08-19T00:08:23.380Z,5.50
2022-08-19T00:15:30.107Z,6.23
2022-08-19T00:18:41.958Z,6.47
2022-08-19T00:22:19.261Z,7.87
2022-08-19T00:25:39.635Z,7.53
2022-08-19T00:39:00.669Z,7.40
2022-08-19T00:42:40.312Z,6.73
2022-08-19T00:49:41.075Z,7.97
2022-08-19T00:53:03.853Z,9.63
2022-08-19T01:08:13.949Z,10.40
2022-08-19T01:11:48.523Z,11.50
2022-08-19T01:17:52.709Z,10.70
2022-08-19T01:21:20.697Z,10.90
2022-08-19T01:24:19.087Z,11.40
2022-08-19T01:27:26.380Z,11.77
2022-08-19T01:34:30.012Z,12.07
2022-08-19T01:40:44.299Z,11.67
2022-08-19T01:44:17.761Z,12.33
2022-08-19T01:47:29.316Z,11.03
2022-08-19T01:51:06.101Z,11.83
2022-08-19T01:54:27.834Z,10.77
2022-08-19T02:04:26.452Z,11.95
2022-08-19T02:07:14.005Z,10.93
2022-08-19T02:10:16.638Z,11.33
2022-08-19T02:13:04.308Z,10.37
2022-08-19T02:15:52.083Z,10.93
2022-08-19T02:18:39.538Z,10.60
2022-08-19T02:21:27.486Z,11.60
2022-08-19T02:24:14.730Z,10.47
2022-08-19T02:34:34.302Z,10.80
2022-08-19T02:37:54.205Z,11.43
2022-08-19T02:41:09.877Z,10.70
2022-08-19T02:44:29.689Z,11.27
2022-08-19T02:47:24.619Z,10.37
2022-08-19T02:54:04.138Z,10.77
2022-08-19T03:00:26.643Z,12.53
2022-08-19T03:03:25.284Z,11.57
2022-08-19T03:07:00.808Z,12.23
2022-08-19T03:10:10.168Z,12.95
2022-08-19T03:28:26.840Z,12.47
2022-08-19T03:32:04.861Z,12.60
2022-08-19T03:36:02.619Z,13.23
2022-08-19T03:42:48.660Z,15.43
2022-08-19T03:46:51.200Z,14.80
2022-08-19T03:49:59.729Z,17.17
2022-08-19T03:53:15.512Z,17.90
2022-08-19T03:56:05.071Z,18.23
2022-08-19T03:59:02.396Z,16.57
2022-08-19T04:06:39.882Z,18.23
2022-08-19T04:10:21.570Z,20.07
2022-08-19T04:13:21.493Z,20.73
2022-08-19T04:20:01.248Z,19.97
2022-08-19T04:27:31.448Z,22.00
2022-08-19T04:34:13.995Z,23.17
2022-08-19T04:37:39.698Z,23.77
2022-08-19T04:40:55.971Z,23.07
2022-08-19T04:44:16.411Z,23.57
2022-08-19T04:54:39.405Z,24.70
2022-08-19T04:58:16.618Z,24.53
2022-08-19T05:01:22.238Z,24.37
2022-08-19T05:08:57.053Z,26.08
2022-08-19T05:11:45.667Z,25.73
2022-08-19T05:14:37.505Z,25.07
2022-08-19T05:17:33.616Z,26.40
2022-08-19T05:20:42.301Z,25.33
2022-08-19T05:23:41.323Z,26.60
2022-08-19T05:26:31.300Z,26.23
2022-08-19T05:29:21.727Z,26.83
2022-08-19T05:32:11.486Z,25.80
2022-08-19T05:34:58.948Z,25.10
2022-08-19T05:37:46.441Z,24.33
2022-08-19T05:40:40.169Z,23.33
2022-08-19T06:05:52.229Z,23.93
2022-08-19T06:09:16.547Z,26.27
2022-08-19T06:12:34.295Z,27.40
2022-08-19T06:15:48.163Z,25.70
2022-08-19T06:23:09.046Z,27.43
2022-08-19T06:29:52.202Z,31.17
2022-08-19T06:33:25.678Z,31.87
2022-08-19T06:36:50.277Z,31.37
2022-08-19T06:43:56.376Z,36.73
2022-08-19T06:46:44.492Z,32.67
2022-08-19T06:50:39.778Z,36.17
2022-08-19T06:53:35.302Z,32.77
2022-08-19T06:56:41.792Z,32.97
2022-08-19T06:59:33.576Z,32.40
2022-08-19T07:02:21.560Z,32.43
2022-08-19T07:05:09.474Z,35.37
2022-08-19T07:08:04.592Z,32.47
2022-08-19T07:10:52.522Z,33.53
2022-08-19T07:13:46.795Z,36.67
2022-08-19T07:16:57.082Z,36.43
2022-08-19T07:19:44.864Z,35.07
2022-08-19T07:22:39.558Z,35.07
2022-08-19T07:25:31.819Z,35.27
2022-08-19T07:28:24.479Z,33.80
2022-08-19T07:31:14.954Z,32.27
2022-08-19T07:34:03.426Z,31.93
2022-08-19T07:36:52.307Z,34.00
2022-08-19T07:39:40.361Z,33.73
2022-08-19T07:42:29.287Z,31.90
2022-08-19T07:45:17.192Z,31.10
2022-08-19T07:48:05.541Z,29.33
2022-08-19T07:51:09.109Z,30.70
2022-08-19T07:53:56.794Z,28.90
2022-08-19T07:56:44.379Z,29.13
2022-08-19T07:59:32.653Z,27.50
2022-08-19T08:02:20.237Z,27.80
2022-08-19T08:05:26.993Z,27.10
2022-08-19T08:08:44.530Z,25.43
2022-08-19T08:12:04.987Z,26.83
2022-08-19T08:14:58.635Z,23.60
2022-08-19T08:25:36.959Z,16.58
2022-08-19T08:28:32.837Z,16.15
2022-08-19T08:31:58.624Z,15.38
2022-08-19T08:41:54.435Z,16.23
2022-08-19T08:45:20.163Z,12.75
2022-08-19T08:48:33.786Z,12.15
2022-08-19T08:51:33.179Z,11.80
2022-08-19T08:57:55.976Z,9.02
2022-08-19T09:00:54.701Z,9.60
2022-08-19T09:03:46.574Z,8.43
2022-08-19T09:06:44.540Z,7.78
2022-08-19T09:09:59.684Z,8.07
2022-08-19T09:12:59.866Z,7.32
2022-08-19T09:16:02.638Z,7.55
2022-08-19T09:18:54.689Z,7.30
2022-08-19T09:21:42.298Z,6.93
2022-08-19T09:24:31.056Z,6.50
2022-08-19T09:27:42.017Z,7.55
2022-08-19T09:30:34.165Z,7.30
2022-08-19T09:33:21.707Z,7.45
2022-08-19T09:36:11.704Z,7.60
2022-08-19T09:38:59.009Z,7.72
2022-08-19T09:41:54.153Z,8.20
2022-08-19T09:46:22.833Z,6.68
2022-08-19T09:49:59.816Z,7.50
2022-08-19T09:56:51.017Z,7.13
2022-08-19T10:07:02.551Z,7.03
2022-08-19T10:10:22.224Z,7.15
2022-08-19T10:16:39.541Z,6.65
2022-08-19T10:22:39.868Z,7.05
2022-08-19T10:25:34.731Z,7.13
2022-08-19T10:28:52.059Z,6.60
2022-08-19T10:32:02.643Z,7.03
2022-08-19T10:35:56.442Z,6.85
2022-08-19T10:39:28.637Z,6.03
2022-08-19T10:43:08.487Z,6.55
2022-08-19T10:46:30.969Z,5.70
2022-08-19T10:50:28.812Z,5.95
2022-08-19T10:53:34.240Z,5.47
2022-08-19T10:56:54.194Z,5.18
2022-08-19T11:03:35.605Z,5.43
2022-08-19T11:17:40.309Z,5.35
2022-08-19T11:21:04.153Z,4.22
2022-08-19T11:24:39.436Z,4.05
2022-08-19T11:27:48.180Z,3.90
2022-08-19T11:34:18.759Z,4.57
2022-08-19T11:37:25.172Z,3.70
2022-08-19T11:40:25.361Z,3.70
2022-08-19T11:43:57.771Z,3.63
2022-08-19T11:54:00.887Z,2.97
2022-08-19T12:03:31.811Z,3.25
2022-08-19T12:06:29.643Z,3.40
2022-08-19T12:09:18.397Z,2.28
2022-08-19T12:12:06.091Z,2.58
2022-08-19T12:14:57.574Z,2.30
2022-08-19T12:17:45.036Z,2.28
2022-08-19T12:20:36.364Z,1.98
2022-08-19T12:23:24.279Z,2.13
2022-08-19T12:26:12.078Z,2.25
2022-08-19T12:29:00.810Z,2.60
2022-08-19T12:31:48.334Z,1.60
2022-08-19T12:34:37.712Z,1.60
2022-08-19T12:37:25.264Z,1.42
2022-08-19T12:40:13.158Z,1.70
2022-08-19T12:43:00.448Z,1.60
2022-08-19T12:45:48.024Z,1.73
2022-08-19T12:48:55.272Z,1.67
2022-08-19T12:51:44.042Z,1.38
2022-08-19T12:54:45.600Z,1.30
2022-08-19T12:57:35.643Z,1.63
2022-08-19T13:00:24.293Z,1.20
2022-08-19T13:03:12.144Z,1.30
2022-08-19T13:06:09.051Z,1.40
2022-08-19T13:08:59.636Z,1.23
2022-08-19T13:11:54.964Z,1.30
2022-08-19T13:14:55.846Z,1.20
2022-08-19T13:17:54.708Z,1.70
2022-08-19T13:20:42.443Z,1.10
2022-08-19T13:23:41.679Z,1.30
2022-08-19T13:26:28.894Z,1.20
2022-08-19T13:29:34.866Z,1.30
2022-08-19T13:32:40.896Z,1.40
2022-08-19T13:39:49.668Z,1.50
2022-08-19T13:43:22.329Z,1.33
2022-08-19T13:50:25.580Z,1.13
2022-08-19T13:56:49.363Z,1.52
2022-08-19T13:59:45.639Z,1.20
2022-08-19T14:02:55.534Z,1.25
2022-08-19T14:06:38.446Z,1.08
2022-08-19T14:09:40.385Z,1.15
2022-08-19T14:13:11.373Z,1.27
2022-08-19T14:16:00.801Z,1.30
2022-08-19T14:19:30.141Z,1.25
2022-08-19T14:22:21.996Z,1.23
2022-08-19T14:26:03.700Z,1.50
2022-08-19T14:39:06.478Z,1.30
2022-08-19T14:42:37.649Z,1.40
2022-08-19T14:45:49.421Z,1.50
2022-08-19T14:48:51.634Z,1.70
2022-08-19T14:55:07.939Z,1.92
2022-08-19T15:02:34.107Z,1.92
2022-08-19T15:09:03.897Z,1.90
2022-08-19T15:13:02.409Z,1.50
2022-08-19T15:23:26.868Z,1.60
2022-08-19T15:26:54.389Z,1.35
2022-08-19T15:36:22.639Z,1.15
2022-08-19T15:39:11.001Z,1.70
2022-08-19T15:42:00.613Z,1.40
2022-08-19T15:44:48.927Z,1.52
2022-08-19T15:47:39.022Z,1.60
2022-08-19T15:50:26.383Z,1.45
2022-08-19T15:53:13.773Z,1.75
2022-08-19T15:56:17.824Z,1.80
2022-08-19T16:02:53.730Z,1.73
2022-08-19T16:06:00.349Z,1.52
2022-08-19T16:15:22.020Z,1.15
2022-08-19T16:18:16.575Z,1.27
2022-08-19T16:21:08.071Z,1.23
2022-08-19T16:23:55.561Z,1.40
2022-08-19T16:26:43.918Z,1.80
2022-08-19T16:29:43.314Z,2.03
2022-08-19T16:32:30.982Z,1.30
2022-08-19T16:35:18.315Z,0.98
2022-08-19T16:42:54.105Z,0.82
2022-08-19T16:49:02.038Z,0.98
2022-08-19T16:52:50.606Z,1.10
2022-08-19T16:59:33.332Z,0.80
2022-08-19T17:02:30.523Z,0.90
2022-08-19T17:09:14.575Z,0.85
2022-08-19T17:12:31.783Z,0.70
2022-08-19T17:15:34.838Z,0.77
2022-08-19T17:18:23.222Z,0.77
2022-08-19T17:21:16.777Z,0.70
2022-08-19T17:24:32.866Z,0.60
2022-08-19T17:31:45.097Z,0.70
2022-08-19T17:34:43.346Z,0.60
2022-08-19T17:41:42.644Z,0.70
2022-08-19T17:44:51.214Z,1.50
2022-08-19T17:47:45.711Z,0.90
2022-08-19T17:51:29.279Z,1.27
2022-08-19T17:54:24.145Z,1.05
2022-08-19T18:00:53.243Z,1.85
2022-08-19T18:03:52.141Z,1.33
2022-08-19T18:07:10.291Z,1.25
2022-08-19T18:13:36.160Z,1.63
2022-08-19T18:16:26.137Z,1.60
2022-08-19T18:19:22.408Z,1.38
2022-08-19T18:22:38.945Z,1.50
2022-08-19T18:26:42.013Z,1.65
2022-08-19T18:30:01.959Z,1.30
2022-08-19T18:32:53.552Z,1.50
2022-08-19T18:35:59.672Z,1.65
2022-08-19T18:39:54.779Z,1.55
2022-08-19T18:43:23.872Z,1.73
2022-08-19T18:46:37.200Z,1.80
2022-08-19T18:50:01.757Z,2.10
2022-08-19T19:06:13.890Z,2.30
2022-08-19T19:09:44.085Z,2.30
2022-08-19T19:12:57.286Z,2.40
2022-08-19T19:19:10.666Z,3.23
2022-08-19T19:25:54.427Z,3.00
2022-08-19T19:32:48.670Z,2.20
2022-08-19T19:36:01.517Z,3.70
2022-08-19T19:38:52.909Z,3.30
2022-08-19T19:42:20.324Z,2.40
2022-08-19T19:50:24.253Z,4.07
2022-08-19T19:59:36.773Z,3.65
2022-08-19T20:07:48.103Z,3.63
2022-08-19T20:14:49.537Z,3.33
2022-08-19T20:18:19.286Z,4.35
2022-08-19T20:21:18.896Z,3.80
2022-08-19T20:24:25.998Z,3.20
2022-08-19T20:27:40.091Z,3.07
2022-08-19T20:30:39.074Z,3.35
2022-08-19T20:37:05.963Z,2.97
2022-08-19T20:39:53.536Z,2.60
2022-08-19T20:42:43.249Z,2.30
2022-08-19T20:45:33.548Z,2.17
2022-08-19T20:48:21.356Z,3.03
2022-08-19T20:51:10.739Z,2.70
2022-08-19T20:53:59.429Z,2.30
2022-08-19T20:56:46.898Z,2.78
2022-08-19T20:59:34.462Z,2.33
2022-08-19T21:02:22.100Z,1.65
2022-08-19T21:05:09.896Z,2.08
2022-08-19T21:07:57.711Z,2.40
2022-08-19T21:10:49.378Z,2.40
2022-08-19T21:13:37.475Z,1.73
2022-08-19T21:16:25.217Z,1.90
2022-08-19T21:19:13.021Z,2.30
2022-08-19T21:22:01.759Z,1.98
2022-08-19T21:24:49.247Z,2.10
2022-08-19T21:27:36.749Z,2.65
2022-08-19T21:30:23.905Z,2.20
2022-08-19T21:33:12.297Z,2.10
2022-08-19T21:36:00.718Z,3.75
2022-08-19T21:38:48.248Z,2.33
2022-08-19T21:50:46.091Z,2.28
2022-08-19T21:53:44.002Z,3.25
2022-08-19T21:56:32.792Z,2.42
2022-08-19T21:59:21.867Z,2.92
2022-08-19T22:02:19.592Z,2.83
2022-08-19T22:05:08.537Z,2.57
2022-08-19T22:07:58.041Z,3.00
2022-08-19T22:10:49.638Z,3.30
2022-08-19T22:13:40.620Z,3.72
2022-08-19T22:16:29.052Z,3.40
2022-08-19T22:19:17.120Z,3.30
2022-08-19T22:22:04.787Z,4.43
2022-08-19T22:24:54.100Z,4.30
2022-08-19T22:27:41.581Z,4.23
2022-08-19T22:30:33.073Z,4.10
2022-08-19T22:33:22.320Z,2.70
2022-08-19T22:36:09.847Z,3.57
2022-08-19T22:38:58.151Z,3.20
2022-08-19T22:41:45.643Z,2.90
2022-08-19T22:44:52.834Z,3.37
2022-08-19T22:48:27.844Z,4.23
2022-08-19T22:51:34.103Z,4.07
2022-08-19T22:55:08.991Z,4.20
2022-08-19T22:58:28.152Z,4.33
2022-08-19T23:05:22.131Z,4.03
2022-08-19T23:08:51.608Z,3.93
2022-08-19T23:18:48.889Z,3.60
2022-08-19T23:22:06.995Z,3.50
2022-08-19T23:25:53.326Z,3.83
2022-08-19T23:46:00.822Z,2.40
2022-08-19T23:49:09.700Z,3.50
2022-08-19T23:51:58.769Z,3.20
2022-08-19T23:54:46.403Z,2.60
2022-08-19T23:57:33.997Z,3.20
